Amarillo, TX

11:23 AM CST on December 18, 2014 (GMT -0600)
Moore County | Change Station
CLOSE
Current Station
Airport
Location: Dumas,
Elevation: 3704 ft
Nearby Weather Stations

Elev 3704 ft 35.86 °N, 102.01 °W | Updated 8 minutes ago

Overcast
Overcast
32 °F
Feels Like 26 °F
N
7
Wind Variable Wind from NNW

Today
High -- | Low -- °F
--% Chance of Precip.
Yesterday
High -- | Low -- °F
Precip. -- in
7:50 AM 5:37 PM
Waning Crescent, 13% visible
Pressure 30.14 in
Visibility 7.0 miles
Clouds Overcast 700 ft
Windchill 26 °F
Dew Point 28 °F
Humidity 87%
Rainfall 0.00 in
Snow Depth Not available.
UV 1 out of 12
Pollen 6.60 out of 12
Air Quality Not available.
Flu Activity Not available.
METAR KDUX 181715Z AUTO 33006KT 7SM OVC007 00/M02 A3014 RMK AO2 T00001020

More Conditions Fewer Conditions

Pressure 30.14 in
Visibility 7.0 miles
Clouds Overcast 700 ft
Windchill 26 °F
Dew Point 28 °F
Humidity 87%
Rainfall 0.00 in
Snow Depth Not available.
UV 1 out of 12
Pollen 6.60 out of 12
Air Quality Not available.
Flu Activity Not available.
METAR KDUX 181715Z AUTO 33006KT 7SM OVC007 00/M02 A3014 RMK AO2 T00001020

More Conditions Fewer Conditions

Nowcast | as of 10:05 am CST on December 18, 2014

Areas of fog and drizzle will persist across much of the Oklahoma and Texas panhandles through noon. Visibilities will be reduced to below 2 miles at times. Conditions are expected to improve late this morning into the early afternoon hours.

×

10-Day Weather Forecast

Almanac

Astronomy

Dec. 18, 2014 Rise Set
Actual Time
Civil Twilight
Nautical Twilight
Astronomical Twilight
Moon
Length of Visible Light
Length of Day
Tomorrow will be .
, % of the Moon is Illuminated

Today's Extremes

State Highs State Lows

Community

WunderPhotos

Upload Photos

1,778,964 photos uploaded!

WunderBlogs® & News

Nearby

Air Quality

  Air Quality AQ Index Pollutant
Not available.

Snow Depth

Station Depth Elevation

Earthquake Activity

City Distance Mag. Time & Date
Minimum magnitude displayed is 2.5.

Coastal Water Temperatures

Place Temperature

Nearby Weather Stations